Terminal Aerodrome Forecast
Issued by NWS

Home | Current Version | Previous Version | Text Only | Print | Product List | Glossary On
Versions: 1 2 3 4 5 6 7 8 9 10 11 12 13 14 15 16 17 18 19 20 21 22 23 24 25 26 27 28 29 30 31 32 33 34
000
FTUS44 KLZK 250532
TAFHRO
TAF
KHRO 250532Z 2506/2606 14003KT 4SM -SHRA BR SCT002 OVC060
      TEMPO 2506/2510 1/4SM FG BKN002
     FM251000 34003KT 1SM -SHRA BR BKN002 OVC025
      TEMPO 2510/2514 1/4SM FG
     FM251800 31008KT P6SM OVC100=

USA.gov is the U.S. government's official web portal to all federal, state and local government web resources and services.